sensor_id;sensor_type;location;lat;lon;timestamp;pressure;altitude;pressure_sealevel;temperature;humidity
56944;BME280;42848;42.524;12.052;2022-08-30T00:00:02;96942.28;;;22.79;100.00
56944;BME280;42848;42.524;12.052;2022-08-30T00:02:46;96941.47;;;22.64;100.00
56944;BME280;42848;42.524;12.052;2022-08-30T00:05:15;96943.06;;;22.62;100.00
56944;BME280;42848;42.524;12.052;2022-08-30T00:07:41;96943.03;;;22.55;100.00
56944;BME280;42848;42.524;12.052;2022-08-30T00:10:07;96935.91;;;22.47;100.00
56944;BME280;42848;42.524;12.052;2022-08-30T00:12:32;96937.88;;;22.42;100.00
56944;BME280;42848;42.524;12.052;2022-08-30T00:14:59;96936.72;;;22.72;100.00
56944;BME280;42848;42.524;12.052;2022-08-30T00:17:25;96931.19;;;22.76;100.00
56944;BME280;42848;42.524;12.052;2022-08-30T00:19:50;96936.72;;;22.61;100.00
56944;BME280;42848;42.524;12.052;2022-08-30T00:22:16;96935.94;;;22.64;100.00
56944;BME280;42848;42.524;12.052;2022-08-30T00:24:42;96942.25;;;22.54;100.00
56944;BME280;42848;42.524;12.052;2022-08-30T00:27:08;96935.09;;;22.35;100.00
56944;BME280;42848;42.524;12.052;2022-08-30T00:29:33;96937.88;;;22.42;100.00
56944;BME280;42848;42.524;12.052;2022-08-30T00:31:59;96943.00;;;22.48;100.00
56944;BME280;42848;42.524;12.052;2022-08-30T00:34:27;96936.69;;;22.47;100.00
56944;BME280;42848;42.524;12.052;2022-08-30T00:36:53;96944.22;;;22.54;100.00
56944;BME280;42848;42.524;12.052;2022-08-30T00:39:18;96944.59;;;22.45;100.00
56944;BME280;42848;42.524;12.052;2022-08-30T00:41:44;96950.13;;;22.41;100.00
56944;BME280;42848;42.524;12.052;2022-08-30T00:44:09;96946.94;;;22.36;100.00
56944;BME280;42848;42.524;12.052;2022-08-30T00:46:35;96944.94;;;22.29;100.00
56944;BME280;42848;42.524;12.052;2022-08-30T00:49:02;96946.16;;;22.32;100.00
56944;BME280;42848;42.524;12.052;2022-08-30T00:51:30;96943.38;;;22.35;100.00
56944;BME280;42848;42.524;12.052;2022-08-30T00:53:57;96938.56;;;21.35;100.00
56944;BME280;42848;42.524;12.052;2022-08-30T00:56:24;96941.38;;;21.42;100.00
56944;BME280;42848;42.524;12.052;2022-08-30T00:58:54;96937.00;;;21.37;100.00
56944;BME280;42848;42.524;12.052;2022-08-30T01:01:22;96938.63;;;21.42;100.00
56944;BME280;42848;42.524;12.052;2022-08-30T01:03:48;96944.53;;;22.13;100.00
56944;BME280;42848;42.524;12.052;2022-08-30T01:06:15;96943.72;;;22.16;100.00
56944;BME280;42848;42.524;12.052;2022-08-30T01:08:42;96950.91;;;22.31;100.00
56944;BME280;42848;42.524;12.052;2022-08-30T01:11:09;96951.50;;;21.85;100.00
56944;BME280;42848;42.524;12.052;2022-08-30T01:13:37;96950.06;;;22.17;100.00
56944;BME280;42848;42.524;12.052;2022-08-30T01:16:05;96946.53;;;22.30;100.00
56944;BME280;42848;42.524;12.052;2022-08-30T01:18:31;96950.91;;;22.38;100.00
56944;BME280;42848;42.524;12.052;2022-08-30T01:21:26;96945.72;;;22.19;100.00
56944;BME280;42848;42.524;12.052;2022-08-30T01:23:56;96949.69;;;22.25;100.00
56944;BME280;42848;42.524;12.052;2022-08-30T01:26:23;96949.22;;;22.12;100.00
56944;BME280;42848;42.524;12.052;2022-08-30T01:28:52;96954.00;;;22.19;100.00
56944;BME280;42848;42.524;12.052;2022-08-30T01:31:19;96952.84;;;22.24;100.00
56944;BME280;42848;42.524;12.052;2022-08-30T01:33:44;96952.47;;;22.32;100.00
56944;BME280;42848;42.524;12.052;2022-08-30T01:36:12;96950.06;;;22.20;100.00
56944;BME280;42848;42.524;12.052;2022-08-30T01:38:46;96948.47;;;22.19;100.00
56944;BME280;42848;42.524;12.052;2022-08-30T01:41:28;96949.97;;;21.99;100.00
56944;BME280;42848;42.524;12.052;2022-08-30T01:43:57;96941.53;;;21.70;100.00
56944;BME280;42848;42.524;12.052;2022-08-30T01:46:27;96942.16;;;22.15;100.00
56944;BME280;42848;42.524;12.052;2022-08-30T01:48:55;96937.72;;;22.00;100.00
56944;BME280;42848;42.524;12.052;2022-08-30T01:51:24;96939.25;;;21.94;100.00
56944;BME280;42848;42.524;12.052;2022-08-30T01:53:50;96943.56;;;21.77;100.00
56944;BME280;42848;42.524;12.052;2022-08-30T01:56:15;96930.78;;;21.54;100.00
56944;BME280;42848;42.524;12.052;2022-08-30T01:58:42;96931.63;;;21.58;100.00
56944;BME280;42848;42.524;12.052;2022-08-30T02:01:10;96933.69;;;21.83;100.00
56944;BME280;42848;42.524;12.052;2022-08-30T02:03:40;96935.34;;;21.95;100.00
56944;BME280;42848;42.524;12.052;2022-08-30T02:06:10;96929.50;;;22.14;100.00
56944;BME280;42848;42.524;12.052;2022-08-30T02:08:38;96930.69;;;22.13;100.00
56944;BME280;42848;42.524;12.052;2022-08-30T02:11:07;96935.84;;;22.18;100.00
56944;BME280;42848;42.524;12.052;2022-08-30T02:13:34;96930.25;;;22.04;100.00
56944;BME280;42848;42.524;12.052;2022-08-30T02:16:03;96938.75;;;21.67;100.00
56944;BME280;42848;42.524;12.052;2022-08-30T02:18:32;96926.06;;;21.51;100.00
56944;BME280;42848;42.524;12.052;2022-08-30T02:20:58;96932.31;;;21.45;100.00
56944;BME280;42848;42.524;12.052;2022-08-30T02:23:25;96936.09;;;21.88;100.00
56944;BME280;42848;42.524;12.052;2022-08-30T02:25:51;96938.63;;;21.45;100.00
56944;BME280;42848;42.524;12.052;2022-08-30T02:28:17;96939.56;;;21.67;100.00
56944;BME280;42848;42.524;12.052;2022-08-30T02:30:45;96926.41;;;21.46;100.00
56944;BME280;42848;42.524;12.052;2022-08-30T02:33:11;96926.75;;;21.38;100.00
56944;BME280;42848;42.524;12.052;2022-08-30T02:35:37;96932.13;;;21.16;100.00
56944;BME280;42848;42.524;12.052;2022-08-30T02:38:03;96931.34;;;21.19;100.00
56944;BME280;42848;42.524;12.052;2022-08-30T02:40:29;96929.94;;;21.43;100.00
56944;BME280;42848;42.524;12.052;2022-08-30T02:42:55;96914.22;;;21.51;100.00
56944;BME280;42848;42.524;12.052;2022-08-30T02:45:22;96918.84;;;21.33;100.00
56944;BME280;42848;42.524;12.052;2022-08-30T02:47:48;96930.16;;;21.20;100.00
56944;BME280;42848;42.524;12.052;2022-08-30T02:50:14;96923.47;;;21.21;100.00
56944;BME280;42848;42.524;12.052;2022-08-30T02:52:39;96928.56;;;21.19;100.00
56944;BME280;42848;42.524;12.052;2022-08-30T02:55:06;96925.50;;;21.28;100.00
56944;BME280;42848;42.524;12.052;2022-08-30T02:57:32;96928.31;;;21.39;100.00
56944;BME280;42848;42.524;12.052;2022-08-30T02:59:58;96930.00;;;21.57;100.00
56944;BME280;42848;42.524;12.052;2022-08-30T03:02:24;96926.06;;;21.55;100.00
56944;BME280;42848;42.524;12.052;2022-08-30T03:04:51;96919.25;;;21.35;100.00
56944;BME280;42848;42.524;12.052;2022-08-30T03:07:17;96917.31;;;21.42;100.00
56944;BME280;42848;42.524;12.052;2022-08-30T03:09:42;96926.41;;;21.43;100.00
56944;BME280;42848;42.524;12.052;2022-08-30T03:12:09;96915.84;;;21.59;100.00
56944;BME280;42848;42.524;12.052;2022-08-30T03:14:36;96912.09;;;21.30;100.00
56944;BME280;42848;42.524;12.052;2022-08-30T03:17:05;96912.16;;;21.34;100.00
56944;BME280;42848;42.524;12.052;2022-08-30T03:19:32;96916.00;;;21.25;100.00
56944;BME280;42848;42.524;12.052;2022-08-30T03:21:58;96912.38;;;21.14;100.00
56944;BME280;42848;42.524;12.052;2022-08-30T03:24:24;96913.97;;;21.15;100.00
56944;BME280;42848;42.524;12.052;2022-08-30T03:26:51;96919.50;;;21.15;100.00
56944;BME280;42848;42.524;12.052;2022-08-30T03:29:17;96913.19;;;21.15;100.00
56944;BME280;42848;42.524;12.052;2022-08-30T03:31:43;96916.22;;;20.99;100.00
56944;BME280;42848;42.524;12.052;2022-08-30T03:34:09;96913.66;;;21.27;100.00
56944;BME280;42848;42.524;12.052;2022-08-30T03:36:38;96912.19;;;21.41;100.00
56944;BME280;42848;42.524;12.052;2022-08-30T03:39:07;96922.06;;;21.42;100.00
56944;BME280;42848;42.524;12.052;2022-08-30T03:41:34;96915.06;;;21.58;100.00
56944;BME280;42848;42.524;12.052;2022-08-30T03:44:00;96924.56;;;21.68;100.00
56944;BME280;42848;42.524;12.052;2022-08-30T03:46:27;96923.78;;;21.68;100.00
56944;BME280;42848;42.524;12.052;2022-08-30T03:48:53;96915.78;;;21.52;100.00
56944;BME280;42848;42.524;12.052;2022-08-30T03:51:23;96926.00;;;21.41;100.00
56944;BME280;42848;42.524;12.052;2022-08-30T03:53:49;96926.81;;;21.48;100.00
56944;BME280;42848;42.524;12.052;2022-08-30T03:56:16;96926.88;;;21.59;100.00
56944;BME280;42848;42.524;12.052;2022-08-30T03:58:42;96927.19;;;21.43;100.00
56944;BME280;42848;42.524;12.052;2022-08-30T04:01:08;96916.50;;;21.38;100.00
56944;BME280;42848;42.524;12.052;2022-08-30T04:03:34;96924.47;;;21.54;100.00
56944;BME280;42848;42.524;12.052;2022-08-30T04:06:00;96923.75;;;21.64;100.00
56944;BME280;42848;42.524;12.052;2022-08-30T04:08:26;96919.34;;;21.52;100.00
56944;BME280;42848;42.524;12.052;2022-08-30T04:10:53;96922.09;;;21.49;100.00
56944;BME280;42848;42.524;12.052;2022-08-30T04:13:20;96922.84;;;21.42;100.00
56944;BME280;42848;42.524;12.052;2022-08-30T04:15:47;96927.31;;;21.10;100.00
56944;BME280;42848;42.524;12.052;2022-08-30T04:18:13;96930.47;;;21.08;100.00
56944;BME280;42848;42.524;12.052;2022-08-30T04:20:40;96926.19;;;21.14;100.00
56944;BME280;42848;42.524;12.052;2022-08-30T04:23:06;96928.94;;;21.14;100.00
56944;BME280;42848;42.524;12.052;2022-08-30T04:25:33;96924.22;;;21.18;100.00
56944;BME280;42848;42.524;12.052;2022-08-30T04:28:00;96929.69;;;21.08;100.00
56944;BME280;42848;42.524;12.052;2022-08-30T04:30:26;96924.19;;;21.11;100.00
56944;BME280;42848;42.524;12.052;2022-08-30T04:32:52;96937.53;;;21.02;100.00
56944;BME280;42848;42.524;12.052;2022-08-30T04:35:18;96934.47;;;21.14;100.00
56944;BME280;42848;42.524;12.052;2022-08-30T04:37:44;96933.69;;;21.17;100.00
56944;BME280;42848;42.524;12.052;2022-08-30T04:40:10;96948.63;;;21.09;100.00
56944;BME280;42848;42.524;12.052;2022-08-30T04:42:36;96939.94;;;21.07;100.00
56944;BME280;42848;42.524;12.052;2022-08-30T04:45:08;96951.75;;;21.08;100.00
56944;BME280;42848;42.524;12.052;2022-08-30T04:47:35;96947.44;;;21.10;100.00
56944;BME280;42848;42.524;12.052;2022-08-30T04:50:01;96942.28;;;21.05;100.00
56944;BME280;42848;42.524;12.052;2022-08-30T04:52:27;96949.41;;;21.06;100.00
56944;BME280;42848;42.524;12.052;2022-08-30T04:54:57;96956.09;;;21.05;100.00
56944;BME280;42848;42.524;12.052;2022-08-30T04:57:24;96946.97;;;21.01;100.00
56944;BME280;42848;42.524;12.052;2022-08-30T04:59:50;96948.69;;;21.16;100.00
56944;BME280;42848;42.524;12.052;2022-08-30T05:02:16;96958.19;;;21.22;100.00
56944;BME280;42848;42.524;12.052;2022-08-30T05:04:42;96949.97;;;21.29;100.00
56944;BME280;42848;42.524;12.052;2022-08-30T05:07:28;96952.72;;;21.29;100.00
56944;BME280;42848;42.524;12.052;2022-08-30T05:09:54;96957.41;;;21.25;100.00
56944;BME280;42848;42.524;12.052;2022-08-30T05:12:20;96957.56;;;21.47;100.00
56944;BME280;42848;42.524;12.052;2022-08-30T05:14:46;96955.94;;;21.32;100.00
56944;BME280;42848;42.524;12.052;2022-08-30T05:17:12;96955.16;;;21.35;100.00
56944;BME280;42848;42.524;12.052;2022-08-30T05:19:37;96952.78;;;21.37;100.00
56944;BME280;42848;42.524;12.052;2022-08-30T05:22:03;96955.84;;;21.24;100.00
56944;BME280;42848;42.524;12.052;2022-08-30T05:24:29;96952.03;;;21.40;100.00
56944;BME280;42848;42.524;12.052;2022-08-30T05:26:57;96960.66;;;21.35;100.00
56944;BME280;42848;42.524;12.052;2022-08-30T05:29:23;96963.97;;;21.58;100.00
56944;BME280;42848;42.524;12.052;2022-08-30T05:31:49;96959.94;;;21.48;100.00
56944;BME280;42848;42.524;12.052;2022-08-30T05:34:15;96958.38;;;21.44;100.00
56944;BME280;42848;42.524;12.052;2022-08-30T05:36:41;96955.19;;;21.42;100.00
56944;BME280;42848;42.524;12.052;2022-08-30T05:39:09;96963.97;;;21.58;100.00
56944;BME280;42848;42.524;12.052;2022-08-30T05:41:36;96973.38;;;21.46;100.00
56944;BME280;42848;42.524;12.052;2022-08-30T05:44:04;96964.78;;;21.58;100.00
56944;BME280;42848;42.524;12.052;2022-08-30T05:46:31;96965.22;;;21.71;100.00
56944;BME280;42848;42.524;12.052;2022-08-30T05:48:58;96971.25;;;21.88;100.00
56944;BME280;42848;42.524;12.052;2022-08-30T05:51:28;96967.00;;;22.08;100.00
56944;BME280;42848;42.524;12.052;2022-08-30T05:53:56;96967.34;;;21.99;100.00
56944;BME280;42848;42.524;12.052;2022-08-30T05:56:29;96972.44;;;21.90;100.00
56944;BME280;42848;42.524;12.052;2022-08-30T05:58:55;96975.22;;;22.01;100.00
56944;BME280;42848;42.524;12.052;2022-08-30T06:03:53;96980.09;;;22.29;100.00
56944;BME280;42848;42.524;12.052;2022-08-30T06:06:20;96978.91;;;22.19;100.00
56944;BME280;42848;42.524;12.052;2022-08-30T06:08:47;96979.28;;;22.21;100.00
56944;BME280;42848;42.524;12.052;2022-08-30T06:11:16;96982.91;;;22.39;100.00
56944;BME280;42848;42.524;12.052;2022-08-30T06:13:45;96977.84;;;22.63;100.00
56944;BME280;42848;42.524;12.052;2022-08-30T06:16:13;96985.69;;;22.47;100.00
56944;BME280;42848;42.524;12.052;2022-08-30T06:18:39;96983.28;;;22.38;100.00
56944;BME280;42848;42.524;12.052;2022-08-30T06:21:05;96984.13;;;22.42;100.00
56944;BME280;42848;42.524;12.052;2022-08-30T06:23:31;96981.38;;;22.53;100.00
56944;BME280;42848;42.524;12.052;2022-08-30T06:26:03;96981.78;;;22.62;100.00
56944;BME280;42848;42.524;12.052;2022-08-30T06:28:29;96981.75;;;22.55;100.00
56944;BME280;42848;42.524;12.052;2022-08-30T06:30:56;96987.34;;;22.69;100.00
56944;BME280;42848;42.524;12.052;2022-08-30T06:33:23;96985.00;;;22.85;100.00
56944;BME280;42848;42.524;12.052;2022-08-30T06:35:49;96986.19;;;22.91;100.00
56944;BME280;42848;42.524;12.052;2022-08-30T06:38:15;96986.56;;;22.83;100.00
56944;BME280;42848;42.524;12.052;2022-08-30T06:40:41;96984.22;;;22.88;100.00
56944;BME280;42848;42.524;12.052;2022-08-30T06:43:06;96987.41;;;22.90;100.00
56944;BME280;42848;42.524;12.052;2022-08-30T06:45:33;96986.22;;;22.88;100.00
56944;BME280;42848;42.524;12.052;2022-08-30T06:47:59;96983.78;;;22.79;100.00
56944;BME280;42848;42.524;12.052;2022-08-30T06:50:25;96976.72;;;22.96;100.00
56944;BME280;42848;42.524;12.052;2022-08-30T06:52:51;96978.72;;;23.06;100.00
56944;BME280;42848;42.524;12.052;2022-08-30T06:55:17;96973.94;;;23.10;100.00
56944;BME280;42848;42.524;12.052;2022-08-30T06:57:44;96982.66;;;23.09;100.00
56944;BME280;42848;42.524;12.052;2022-08-30T07:00:12;96971.56;;;23.19;100.00
56944;BME280;42848;42.524;12.052;2022-08-30T07:02:39;96972.38;;;23.27;100.00
56944;BME280;42848;42.524;12.052;2022-08-30T07:05:06;96983.06;;;23.25;100.00
56944;BME280;42848;42.524;12.052;2022-08-30T07:07:33;96984.22;;;23.31;100.00
56944;BME280;42848;42.524;12.052;2022-08-30T07:10:02;96979.84;;;23.41;100.00
56944;BME280;42848;42.524;12.052;2022-08-30T07:12:28;96980.25;;;23.39;100.00
56944;BME280;42848;42.524;12.052;2022-08-30T07:14:53;96982.63;;;23.44;100.00
56944;BME280;42848;42.524;12.052;2022-08-30T07:17:19;96981.03;;;23.65;100.00
56944;BME280;42848;42.524;12.052;2022-08-30T07:20:03;96984.25;;;23.60;100.00
56944;BME280;42848;42.524;12.052;2022-08-30T07:22:29;96979.88;;;23.51;100.00
56944;BME280;42848;42.524;12.052;2022-08-30T07:24:54;96977.06;;;23.80;100.00
56944;BME280;42848;42.524;12.052;2022-08-30T07:27:20;96977.84;;;23.80;100.00
56944;BME280;42848;42.524;12.052;2022-08-30T07:29:48;96986.53;;;23.82;100.00
56944;BME280;42848;42.524;12.052;2022-08-30T07:32:14;96982.59;;;23.80;100.00
56944;BME280;42848;42.524;12.052;2022-08-30T07:34:40;96980.97;;;23.90;100.00
56944;BME280;42848;42.524;12.052;2022-08-30T07:37:06;96985.75;;;23.89;100.00
56944;BME280;42848;42.524;12.052;2022-08-30T07:39:32;96984.94;;;23.89;100.00
56944;BME280;42848;42.524;12.052;2022-08-30T07:41:57;96984.09;;;24.02;100.00
56944;BME280;42848;42.524;12.052;2022-08-30T07:44:23;96988.03;;;24.08;100.00
56944;BME280;42848;42.524;12.052;2022-08-30T07:46:49;96984.50;;;24.01;100.00
56944;BME280;42848;42.524;12.052;2022-08-30T07:49:15;96995.56;;;24.11;100.00
56944;BME280;42848;42.524;12.052;2022-08-30T07:51:41;96992.03;;;24.00;100.00
56944;BME280;42848;42.524;12.052;2022-08-30T07:54:07;96986.84;;;24.09;100.00
56944;BME280;42848;42.524;12.052;2022-08-30T07:56:32;97000.69;;;24.17;100.00
56944;BME280;42848;42.524;12.052;2022-08-30T07:58:58;96995.06;;;24.38;100.00
56944;BME280;42848;42.524;12.052;2022-08-30T08:01:24;96997.50;;;24.32;100.00
56944;BME280;42848;42.524;12.052;2022-08-30T08:03:50;97002.56;;;24.52;100.00
56944;BME280;42848;42.524;12.052;2022-08-30T08:06:19;97004.53;;;24.51;100.00
56944;BME280;42848;42.524;12.052;2022-08-30T08:08:45;97010.88;;;24.48;100.00
56944;BME280;42848;42.524;12.052;2022-08-30T08:11:14;97010.81;;;24.59;100.00
56944;BME280;42848;42.524;12.052;2022-08-30T08:13:41;97012.50;;;24.46;100.00
56944;BME280;42848;42.524;12.052;2022-08-30T08:16:08;97011.69;;;24.45;100.00
56944;BME280;42848;42.524;12.052;2022-08-30T08:18:34;97006.81;;;24.71;100.00
56944;BME280;42848;42.524;12.052;2022-08-30T08:21:00;97005.69;;;24.57;100.00
56944;BME280;42848;42.524;12.052;2022-08-30T08:23:26;97013.59;;;24.59;100.00
56944;BME280;42848;42.524;12.052;2022-08-30T08:25:52;97018.41;;;24.51;100.00
56944;BME280;42848;42.524;12.052;2022-08-30T08:28:18;97014.44;;;24.52;100.00
56944;BME280;42848;42.524;12.052;2022-08-30T08:30:45;97012.28;;;24.78;100.00
56944;BME280;42848;42.524;12.052;2022-08-30T08:33:11;97019.50;;;24.72;100.00
56944;BME280;42848;42.524;12.052;2022-08-30T08:35:39;97015.94;;;24.67;100.00
56944;BME280;42848;42.524;12.052;2022-08-30T08:38:05;97017.09;;;24.74;100.00
56944;BME280;42848;42.524;12.052;2022-08-30T08:43:26;97028.91;;;24.85;100.00
56944;BME280;42848;42.524;12.052;2022-08-30T08:48:48;97020.94;;;24.94;100.00
56944;BME280;42848;42.524;12.052;2022-08-30T08:51:19;97032.31;;;25.17;100.00
56944;BME280;42848;42.524;12.052;2022-08-30T08:54:15;97027.16;;;25.16;100.00
56944;BME280;42848;42.524;12.052;2022-08-30T08:56:43;97028.84;;;25.03;100.00
56944;BME280;42848;42.524;12.052;2022-08-30T08:59:10;97032.63;;;25.27;100.00
56944;BME280;42848;42.524;12.052;2022-08-30T09:01:37;97037.94;;;25.07;100.00
56944;BME280;42848;42.524;12.052;2022-08-30T09:04:16;97028.50;;;24.90;100.00
56944;BME280;42848;42.524;12.052;2022-08-30T09:06:57;97034.34;;;25.10;100.00
56944;BME280;42848;42.524;12.052;2022-08-30T09:09:31;97030.97;;;25.33;100.00
56944;BME280;42848;42.524;12.052;2022-08-30T09:11:57;97034.19;;;25.31;100.00
56944;BME280;42848;42.524;12.052;2022-08-30T09:14:25;97033.53;;;25.61;100.00
56944;BME280;42848;42.524;12.052;2022-08-30T09:22:34;97016.56;;;25.48;100.00
56944;BME280;42848;42.524;12.052;2022-08-30T09:27:34;97014.78;;;25.69;100.00
56944;BME280;42848;42.524;12.052;2022-08-30T09:32:34;97003.81;;;25.51;100.00
56944;BME280;42848;42.524;12.052;2022-08-30T09:35:02;97009.38;;;25.55;100.00
56944;BME280;42848;42.524;12.052;2022-08-30T09:37:39;97005.44;;;25.52;100.00
56944;BME280;42848;42.524;12.052;2022-08-30T09:40:12;97010.22;;;25.48;100.00
56944;BME280;42848;42.524;12.052;2022-08-30T09:42:39;97013.72;;;25.56;100.00
56944;BME280;42848;42.524;12.052;2022-08-30T09:45:16;97021.03;;;25.84;100.00
56944;BME280;42848;42.524;12.052;2022-08-30T09:47:43;97005.25;;;25.70;100.00
56944;BME280;42848;42.524;12.052;2022-08-30T09:50:13;97014.16;;;25.95;100.00
56944;BME280;42848;42.524;12.052;2022-08-30T10:00:28;97001.72;;;26.03;100.00
56944;BME280;42848;42.524;12.052;2022-08-30T10:15:51;96989.75;;;26.10;100.00
56944;BME280;42848;42.524;12.052;2022-08-30T10:23:36;96982.91;;;26.15;100.00
56944;BME280;42848;42.524;12.052;2022-08-30T10:26:13;96975.41;;;26.12;97.92
56944;BME280;42848;42.524;12.052;2022-08-30T10:28:53;96982.53;;;26.16;97.29
56944;BME280;42848;42.524;12.052;2022-08-30T10:31:48;96977.69;;;26.20;96.57
56944;BME280;42848;42.524;12.052;2022-08-30T10:34:39;96983.16;;;26.27;100.00
56944;BME280;42848;42.524;12.052;2022-08-30T10:37:09;96979.09;;;26.35;95.06
56944;BME280;42848;42.524;12.052;2022-08-30T10:39:41;96983.44;;;26.36;90.43
56944;BME280;42848;42.524;12.052;2022-08-30T10:42:16;96979.50;;;26.38;85.50
56944;BME280;42848;42.524;12.052;2022-08-30T10:44:45;96979.44;;;26.41;79.79
56944;BME280;42848;42.524;12.052;2022-08-30T10:47:34;96974.97;;;26.47;75.41
56944;BME280;42848;42.524;12.052;2022-08-30T10:50:09;96981.44;;;26.37;70.88
56944;BME280;42848;42.524;12.052;2022-08-30T10:52:46;96975.72;;;26.51;71.32
56944;BME280;42848;42.524;12.052;2022-08-30T10:55:18;96979.72;;;26.50;64.77
56944;BME280;42848;42.524;12.052;2022-08-30T10:57:46;96977.97;;;26.60;66.16
56944;BME280;42848;42.524;12.052;2022-08-30T11:00:16;96976.31;;;26.66;67.66
56944;BME280;42848;42.524;12.052;2022-08-30T11:05:36;96967.38;;;26.78;66.56
56944;BME280;42848;42.524;12.052;2022-08-30T11:11:20;96975.16;;;26.90;65.22
56944;BME280;42848;42.524;12.052;2022-08-30T11:13:50;96969.09;;;26.96;65.35
56944;BME280;42848;42.524;12.052;2022-08-30T11:16:17;96972.84;;;27.12;61.87
56944;BME280;42848;42.524;12.052;2022-08-30T11:18:47;96971.44;;;27.24;52.86
56944;BME280;42848;42.524;12.052;2022-08-30T11:24:11;96974.84;;;27.12;56.86
56944;BME280;42848;42.524;12.052;2022-08-30T11:31:51;96958.25;;;27.28;60.71
56944;BME280;42848;42.524;12.052;2022-08-30T11:37:40;96959.69;;;27.13;60.47
56944;BME280;42848;42.524;12.052;2022-08-30T11:42:55;96952.66;;;27.05;69.64
56944;BME280;42848;42.524;12.052;2022-08-30T11:48:00;96949.03;;;27.31;76.60
56944;BME280;42848;42.524;12.052;2022-08-30T11:59:06;96946.91;;;27.39;73.65
56944;BME280;42848;42.524;12.052;2022-08-30T12:01:36;96948.25;;;27.31;71.36
56944;BME280;42848;42.524;12.052;2022-08-30T12:06:53;96937.84;;;27.35;74.30
56944;BME280;42848;42.524;12.052;2022-08-30T12:13:00;96924.53;;;27.42;71.57
56944;BME280;42848;42.524;12.052;2022-08-30T12:15:25;96930.28;;;27.55;70.60
56944;BME280;42848;42.524;12.052;2022-08-30T12:17:56;96922.34;;;27.54;68.23
56944;BME280;42848;42.524;12.052;2022-08-30T12:20:51;96911.78;;;27.65;66.75
56944;BME280;42848;42.524;12.052;2022-08-30T12:26:56;96911.25;;;27.73;63.04
56944;BME280;42848;42.524;12.052;2022-08-30T12:29:33;96904.84;;;28.13;65.25
56944;BME280;42848;42.524;12.052;2022-08-30T12:32:12;96895.06;;;28.04;63.74
56944;BME280;42848;42.524;12.052;2022-08-30T12:34:55;96901.97;;;27.80;64.22
56944;BME280;42848;42.524;12.052;2022-08-30T12:40:20;96898.00;;;27.97;63.26
56944;BME280;42848;42.524;12.052;2022-08-30T12:45:25;96887.38;;;27.49;63.76
56944;BME280;42848;42.524;12.052;2022-08-30T12:48:12;96884.34;;;27.40;63.88
56944;BME280;42848;42.524;12.052;2022-08-30T12:50:51;96885.50;;;27.42;61.43
56944;BME280;42848;42.524;12.052;2022-08-30T12:53:35;96878.25;;;27.68;59.04
56944;BME280;42848;42.524;12.052;2022-08-30T12:56:43;96873.19;;;27.83;60.61
56944;BME280;42848;42.524;12.052;2022-08-30T12:59:42;96868.88;;;27.98;58.06
56944;BME280;42848;42.524;12.052;2022-08-30T13:02:50;96878.75;;;28.03;59.90
56944;BME280;42848;42.524;12.052;2022-08-30T13:05:44;96870.34;;;28.23;59.35
56944;BME280;42848;42.524;12.052;2022-08-30T13:11:26;96856.16;;;28.33;57.35
56944;BME280;42848;42.524;12.052;2022-08-30T13:16:47;96847.03;;;28.49;55.83
56944;BME280;42848;42.524;12.052;2022-08-30T13:19:36;96843.91;;;28.64;55.98
56944;BME280;42848;42.524;12.052;2022-08-30T13:22:03;96847.53;;;28.60;66.63
56944;BME280;42848;42.524;12.052;2022-08-30T13:24:35;96851.41;;;28.83;64.88
56944;BME280;42848;42.524;12.052;2022-08-30T13:27:03;96846.84;;;28.56;67.36
56944;BME280;42848;42.524;12.052;2022-08-30T13:29:38;96843.63;;;28.58;71.03
56944;BME280;42848;42.524;12.052;2022-08-30T13:32:05;96846.41;;;28.58;74.65
56944;BME280;42848;42.524;12.052;2022-08-30T13:34:48;96846.31;;;28.78;70.64
56944;BME280;42848;42.524;12.052;2022-08-30T13:37:24;96844.94;;;29.02;74.19
56944;BME280;42848;42.524;12.052;2022-08-30T13:39:51;96854.38;;;28.76;73.10
56944;BME280;42848;42.524;12.052;2022-08-30T13:42:29;96845.16;;;28.26;76.57
56944;BME280;42848;42.524;12.052;2022-08-30T13:44:57;96842.31;;;28.46;76.24
56944;BME280;42848;42.524;12.052;2022-08-30T13:47:22;96829.94;;;28.64;78.71
56944;BME280;42848;42.524;12.052;2022-08-30T13:49:48;96836.72;;;28.79;74.43
56944;BME280;42848;42.524;12.052;2022-08-30T13:52:19;96841.97;;;28.77;75.52
56944;BME280;42848;42.524;12.052;2022-08-30T13:54:52;96827.31;;;28.73;75.32
56944;BME280;42848;42.524;12.052;2022-08-30T13:57:20;96827.09;;;28.80;76.61
56944;BME280;42848;42.524;12.052;2022-08-30T13:59:47;96819.69;;;29.06;73.51
56944;BME280;42848;42.524;12.052;2022-08-30T14:02:12;96822.22;;;28.84;73.90
56944;BME280;42848;42.524;12.052;2022-08-30T14:04:38;96822.13;;;28.87;74.02
56944;BME280;42848;42.524;12.052;2022-08-30T14:07:04;96827.13;;;28.96;73.90
56944;BME280;42848;42.524;12.052;2022-08-30T14:09:30;96825.03;;;29.00;73.71
56944;BME280;42848;42.524;12.052;2022-08-30T14:11:56;96818.41;;;28.94;75.35
56944;BME280;42848;42.524;12.052;2022-08-30T14:14:22;96821.34;;;29.03;72.85
56944;BME280;42848;42.524;12.052;2022-08-30T14:16:49;96811.38;;;28.86;72.80
56944;BME280;42848;42.524;12.052;2022-08-30T14:19:16;96815.25;;;29.08;70.63
56944;BME280;42848;42.524;12.052;2022-08-30T14:21:43;96814.31;;;28.99;71.49
56944;BME280;42848;42.524;12.052;2022-08-30T14:24:10;96812.13;;;28.90;71.35
56944;BME280;42848;42.524;12.052;2022-08-30T14:26:46;96812.38;;;28.96;72.97
56944;BME280;42848;42.524;12.052;2022-08-30T14:29:20;96800.22;;;29.02;74.72